sensor_id;sensor_type;location;lat;lon;timestamp;P1;durP1;ratioP1;P2;durP2;ratioP2
74487;SDS011;63019;51.080;13.642;2023-11-19T00:00:03;9.02;;;4.55;;
74487;SDS011;63019;51.080;13.642;2023-11-19T00:01:05;10.18;;;4.50;;
74487;SDS011;63019;51.080;13.642;2023-11-19T00:02:08;8.65;;;4.78;;
74487;SDS011;63019;51.080;13.642;2023-11-19T00:03:10;8.88;;;4.72;;
74487;SDS011;63019;51.080;13.642;2023-11-19T00:04:12;6.43;;;4.00;;
74487;SDS011;63019;51.080;13.642;2023-11-19T00:05:15;7.17;;;4.10;;
74487;SDS011;63019;51.080;13.642;2023-11-19T00:06:16;7.10;;;3.72;;
74487;SDS011;63019;51.080;13.642;2023-11-19T00:07:18;6.47;;;4.28;;
74487;SDS011;63019;51.080;13.642;2023-11-19T00:08:22;8.18;;;3.85;;
74487;SDS011;63019;51.080;13.642;2023-11-19T00:09:26;7.90;;;4.10;;
74487;SDS011;63019;51.080;13.642;2023-11-19T00:10:27;7.05;;;3.40;;
74487;SDS011;63019;51.080;13.642;2023-11-19T00:11:29;7.25;;;3.75;;
74487;SDS011;63019;51.080;13.642;2023-11-19T00:12:31;7.38;;;3.92;;
74487;SDS011;63019;51.080;13.642;2023-11-19T00:13:33;8.25;;;4.30;;
74487;SDS011;63019;51.080;13.642;2023-11-19T00:14:35;6.85;;;4.10;;
74487;SDS011;63019;51.080;13.642;2023-11-19T00:15:37;9.37;;;4.20;;
74487;SDS011;63019;51.080;13.642;2023-11-19T00:16:38;8.15;;;4.15;;
74487;SDS011;63019;51.080;13.642;2023-11-19T00:17:41;8.30;;;3.88;;
74487;SDS011;63019;51.080;13.642;2023-11-19T00:18:49;9.68;;;4.38;;
74487;SDS011;63019;51.080;13.642;2023-11-19T00:19:51;6.85;;;3.75;;
74487;SDS011;63019;51.080;13.642;2023-11-19T00:20:53;8.10;;;4.03;;
74487;SDS011;63019;51.080;13.642;2023-11-19T00:21:54;7.82;;;4.75;;
74487;SDS011;63019;51.080;13.642;2023-11-19T00:22:56;8.65;;;4.10;;
74487;SDS011;63019;51.080;13.642;2023-11-19T00:23:58;9.07;;;4.40;;
74487;SDS011;63019;51.080;13.642;2023-11-19T00:25:01;8.35;;;4.22;;
74487;SDS011;63019;51.080;13.642;2023-11-19T00:26:03;9.57;;;4.27;;
74487;SDS011;63019;51.080;13.642;2023-11-19T00:27:07;10.27;;;4.63;;
74487;SDS011;63019;51.080;13.642;2023-11-19T00:28:09;7.95;;;4.10;;
74487;SDS011;63019;51.080;13.642;2023-11-19T00:29:11;6.25;;;4.03;;
74487;SDS011;63019;51.080;13.642;2023-11-19T00:30:15;7.32;;;3.92;;
74487;SDS011;63019;51.080;13.642;2023-11-19T00:31:17;7.10;;;4.00;;
74487;SDS011;63019;51.080;13.642;2023-11-19T00:32:19;8.45;;;4.65;;
74487;SDS011;63019;51.080;13.642;2023-11-19T00:33:21;7.85;;;4.32;;
74487;SDS011;63019;51.080;13.642;2023-11-19T00:34:23;9.13;;;4.53;;
74487;SDS011;63019;51.080;13.642;2023-11-19T00:35:24;8.95;;;4.70;;
74487;SDS011;63019;51.080;13.642;2023-11-19T00:36:26;8.13;;;4.57;;
74487;SDS011;63019;51.080;13.642;2023-11-19T00:37:29;8.75;;;4.90;;
74487;SDS011;63019;51.080;13.642;2023-11-19T00:38:31;9.82;;;5.00;;
74487;SDS011;63019;51.080;13.642;2023-11-19T00:39:33;8.50;;;4.60;;
74487;SDS011;63019;51.080;13.642;2023-11-19T00:40:35;9.07;;;4.78;;
74487;SDS011;63019;51.080;13.642;2023-11-19T00:41:37;7.53;;;4.68;;
74487;SDS011;63019;51.080;13.642;2023-11-19T00:42:38;8.38;;;4.80;;
74487;SDS011;63019;51.080;13.642;2023-11-19T00:43:40;9.95;;;5.05;;
74487;SDS011;63019;51.080;13.642;2023-11-19T00:44:42;9.98;;;4.72;;
74487;SDS011;63019;51.080;13.642;2023-11-19T00:45:51;9.07;;;5.18;;
74487;SDS011;63019;51.080;13.642;2023-11-19T00:46:53;9.07;;;5.03;;
74487;SDS011;63019;51.080;13.642;2023-11-19T00:47:55;10.15;;;4.85;;
74487;SDS011;63019;51.080;13.642;2023-11-19T00:48:57;9.88;;;4.70;;
74487;SDS011;63019;51.080;13.642;2023-11-19T00:50:04;10.05;;;4.82;;
74487;SDS011;63019;51.080;13.642;2023-11-19T00:51:06;10.23;;;4.80;;
74487;SDS011;63019;51.080;13.642;2023-11-19T00:52:08;8.10;;;4.80;;
74487;SDS011;63019;51.080;13.642;2023-11-19T00:53:10;9.25;;;5.20;;
74487;SDS011;63019;51.080;13.642;2023-11-19T00:54:12;9.52;;;5.63;;
74487;SDS011;63019;51.080;13.642;2023-11-19T00:55:13;10.30;;;5.78;;
74487;SDS011;63019;51.080;13.642;2023-11-19T00:56:15;12.60;;;5.50;;
74487;SDS011;63019;51.080;13.642;2023-11-19T00:57:18;10.67;;;5.57;;
74487;SDS011;63019;51.080;13.642;2023-11-19T00:58:20;9.60;;;5.32;;
74487;SDS011;63019;51.080;13.642;2023-11-19T00:59:22;10.60;;;5.45;;
74487;SDS011;63019;51.080;13.642;2023-11-19T01:00:24;10.18;;;5.63;;
74487;SDS011;63019;51.080;13.642;2023-11-19T01:01:28;14.82;;;6.10;;
74487;SDS011;63019;51.080;13.642;2023-11-19T01:02:30;9.20;;;5.22;;
74487;SDS011;63019;51.080;13.642;2023-11-19T01:03:32;8.52;;;5.65;;
74487;SDS011;63019;51.080;13.642;2023-11-19T01:04:34;13.35;;;5.95;;
74487;SDS011;63019;51.080;13.642;2023-11-19T01:05:37;8.23;;;4.93;;
74487;SDS011;63019;51.080;13.642;2023-11-19T01:06:39;10.75;;;5.70;;
74487;SDS011;63019;51.080;13.642;2023-11-19T01:07:49;10.73;;;5.03;;
74487;SDS011;63019;51.080;13.642;2023-11-19T01:08:53;9.35;;;5.38;;
74487;SDS011;63019;51.080;13.642;2023-11-19T01:09:56;8.48;;;5.15;;
74487;SDS011;63019;51.080;13.642;2023-11-19T01:10:58;8.63;;;5.15;;
74487;SDS011;63019;51.080;13.642;2023-11-19T01:12:01;11.98;;;5.72;;
74487;SDS011;63019;51.080;13.642;2023-11-19T01:13:04;8.77;;;4.90;;
74487;SDS011;63019;51.080;13.642;2023-11-19T01:14:07;10.35;;;5.65;;
74487;SDS011;63019;51.080;13.642;2023-11-19T01:15:09;10.70;;;6.15;;
74487;SDS011;63019;51.080;13.642;2023-11-19T01:16:11;8.77;;;5.68;;
74487;SDS011;63019;51.080;13.642;2023-11-19T01:17:14;10.45;;;5.50;;
74487;SDS011;63019;51.080;13.642;2023-11-19T01:18:17;10.93;;;5.53;;
74487;SDS011;63019;51.080;13.642;2023-11-19T01:19:19;10.38;;;5.68;;
74487;SDS011;63019;51.080;13.642;2023-11-19T01:20:22;15.35;;;5.07;;
74487;SDS011;63019;51.080;13.642;2023-11-19T01:21:25;9.73;;;5.60;;
74487;SDS011;63019;51.080;13.642;2023-11-19T01:22:27;12.13;;;5.93;;
74487;SDS011;63019;51.080;13.642;2023-11-19T01:23:29;8.02;;;4.72;;
74487;SDS011;63019;51.080;13.642;2023-11-19T01:24:31;12.25;;;5.55;;
74487;SDS011;63019;51.080;13.642;2023-11-19T01:25:33;8.30;;;5.13;;
74487;SDS011;63019;51.080;13.642;2023-11-19T01:26:35;8.82;;;5.07;;
74487;SDS011;63019;51.080;13.642;2023-11-19T01:27:37;9.00;;;5.30;;
74487;SDS011;63019;51.080;13.642;2023-11-19T01:28:40;9.37;;;5.40;;
74487;SDS011;63019;51.080;13.642;2023-11-19T01:29:48;10.02;;;4.90;;
74487;SDS011;63019;51.080;13.642;2023-11-19T01:30:50;9.60;;;4.82;;
74487;SDS011;63019;51.080;13.642;2023-11-19T01:31:52;10.68;;;5.20;;
74487;SDS011;63019;51.080;13.642;2023-11-19T01:32:54;8.68;;;5.10;;
74487;SDS011;63019;51.080;13.642;2023-11-19T01:33:57;8.35;;;4.90;;
74487;SDS011;63019;51.080;13.642;2023-11-19T01:34:59;7.97;;;5.15;;
74487;SDS011;63019;51.080;13.642;2023-11-19T01:36:01;11.35;;;5.15;;
74487;SDS011;63019;51.080;13.642;2023-11-19T01:37:03;9.68;;;5.55;;
74487;SDS011;63019;51.080;13.642;2023-11-19T01:38:05;9.07;;;5.07;;
74487;SDS011;63019;51.080;13.642;2023-11-19T01:39:06;9.50;;;5.00;;
74487;SDS011;63019;51.080;13.642;2023-11-19T01:40:08;8.65;;;4.85;;
74487;SDS011;63019;51.080;13.642;2023-11-19T01:41:13;8.73;;;4.80;;
74487;SDS011;63019;51.080;13.642;2023-11-19T01:42:15;9.57;;;4.72;;
74487;SDS011;63019;51.080;13.642;2023-11-19T01:43:36;8.90;;;4.65;;
74487;SDS011;63019;51.080;13.642;2023-11-19T01:44:39;7.80;;;4.50;;
74487;SDS011;63019;51.080;13.642;2023-11-19T01:45:41;8.32;;;5.05;;
74487;SDS011;63019;51.080;13.642;2023-11-19T01:46:43;7.38;;;4.35;;
74487;SDS011;63019;51.080;13.642;2023-11-19T01:47:49;7.93;;;4.60;;
74487;SDS011;63019;51.080;13.642;2023-11-19T01:48:53;9.40;;;4.97;;
74487;SDS011;63019;51.080;13.642;2023-11-19T01:49:55;8.57;;;4.70;;
74487;SDS011;63019;51.080;13.642;2023-11-19T01:50:58;9.00;;;4.72;;
74487;SDS011;63019;51.080;13.642;2023-11-19T01:52:03;8.30;;;4.80;;
74487;SDS011;63019;51.080;13.642;2023-11-19T01:53:07;12.68;;;5.05;;
74487;SDS011;63019;51.080;13.642;2023-11-19T01:54:09;6.97;;;4.45;;
74487;SDS011;63019;51.080;13.642;2023-11-19T01:55:11;7.97;;;4.45;;
74487;SDS011;63019;51.080;13.642;2023-11-19T01:56:14;8.95;;;4.90;;
74487;SDS011;63019;51.080;13.642;2023-11-19T01:57:17;8.10;;;4.20;;
74487;SDS011;63019;51.080;13.642;2023-11-19T01:58:19;7.20;;;4.28;;
74487;SDS011;63019;51.080;13.642;2023-11-19T01:59:21;8.82;;;4.53;;
74487;SDS011;63019;51.080;13.642;2023-11-19T02:00:27;7.63;;;4.33;;
74487;SDS011;63019;51.080;13.642;2023-11-19T02:01:29;7.13;;;4.35;;
74487;SDS011;63019;51.080;13.642;2023-11-19T02:02:34;7.30;;;4.03;;
74487;SDS011;63019;51.080;13.642;2023-11-19T02:03:36;7.38;;;3.85;;
74487;SDS011;63019;51.080;13.642;2023-11-19T02:04:39;6.97;;;4.32;;
74487;SDS011;63019;51.080;13.642;2023-11-19T02:05:42;8.48;;;4.13;;
74487;SDS011;63019;51.080;13.642;2023-11-19T02:06:44;7.72;;;3.92;;
74487;SDS011;63019;51.080;13.642;2023-11-19T02:07:48;8.10;;;4.32;;
74487;SDS011;63019;51.080;13.642;2023-11-19T02:08:51;7.45;;;4.22;;
74487;SDS011;63019;51.080;13.642;2023-11-19T02:09:53;7.35;;;4.25;;
74487;SDS011;63019;51.080;13.642;2023-11-19T02:10:55;8.47;;;4.13;;
74487;SDS011;63019;51.080;13.642;2023-11-19T02:12:01;10.13;;;4.22;;
74487;SDS011;63019;51.080;13.642;2023-11-19T02:13:03;6.70;;;4.15;;
74487;SDS011;63019;51.080;13.642;2023-11-19T02:14:07;11.38;;;4.03;;
74487;SDS011;63019;51.080;13.642;2023-11-19T02:15:09;7.80;;;4.30;;
74487;SDS011;63019;51.080;13.642;2023-11-19T02:16:11;8.00;;;4.43;;
74487;SDS011;63019;51.080;13.642;2023-11-19T02:18:29;6.85;;;4.00;;
74487;SDS011;63019;51.080;13.642;2023-11-19T02:19:31;7.35;;;4.20;;
74487;SDS011;63019;51.080;13.642;2023-11-19T02:20:33;8.55;;;3.80;;
74487;SDS011;63019;51.080;13.642;2023-11-19T02:21:35;10.10;;;4.30;;
74487;SDS011;63019;51.080;13.642;2023-11-19T02:22:37;8.40;;;4.15;;
74487;SDS011;63019;51.080;13.642;2023-11-19T02:23:39;8.13;;;3.60;;
74487;SDS011;63019;51.080;13.642;2023-11-19T02:24:41;7.18;;;3.97;;
74487;SDS011;63019;51.080;13.642;2023-11-19T02:25:47;6.30;;;3.88;;
74487;SDS011;63019;51.080;13.642;2023-11-19T02:27:03;9.13;;;3.80;;
74487;SDS011;63019;51.080;13.642;2023-11-19T02:28:15;5.68;;;3.50;;
74487;SDS011;63019;51.080;13.642;2023-11-19T02:29:17;6.28;;;3.38;;
74487;SDS011;63019;51.080;13.642;2023-11-19T02:30:19;7.72;;;3.67;;
74487;SDS011;63019;51.080;13.642;2023-11-19T02:31:21;5.50;;;3.33;;
74487;SDS011;63019;51.080;13.642;2023-11-19T02:32:27;6.57;;;3.27;;
74487;SDS011;63019;51.080;13.642;2023-11-19T02:33:32;5.35;;;3.38;;
74487;SDS011;63019;51.080;13.642;2023-11-19T02:34:33;6.20;;;3.40;;
74487;SDS011;63019;51.080;13.642;2023-11-19T02:35:35;5.10;;;3.40;;
74487;SDS011;63019;51.080;13.642;2023-11-19T02:36:37;4.28;;;2.97;;
74487;SDS011;63019;51.080;13.642;2023-11-19T02:37:39;6.50;;;3.33;;
74487;SDS011;63019;51.080;13.642;2023-11-19T02:38:41;5.88;;;3.55;;
74487;SDS011;63019;51.080;13.642;2023-11-19T02:39:43;4.72;;;3.22;;
74487;SDS011;63019;51.080;13.642;2023-11-19T02:40:44;6.35;;;3.03;;
74487;SDS011;63019;51.080;13.642;2023-11-19T02:41:47;4.53;;;2.78;;
74487;SDS011;63019;51.080;13.642;2023-11-19T02:42:52;5.27;;;2.70;;
74487;SDS011;63019;51.080;13.642;2023-11-19T02:43:56;4.13;;;2.65;;
74487;SDS011;63019;51.080;13.642;2023-11-19T02:44:59;4.80;;;2.80;;
74487;SDS011;63019;51.080;13.642;2023-11-19T02:46:01;5.57;;;3.08;;
74487;SDS011;63019;51.080;13.642;2023-11-19T02:47:16;5.20;;;2.85;;
74487;SDS011;63019;51.080;13.642;2023-11-19T02:48:18;4.65;;;2.60;;
74487;SDS011;63019;51.080;13.642;2023-11-19T02:49:20;4.88;;;2.60;;
74487;SDS011;63019;51.080;13.642;2023-11-19T02:50:22;5.15;;;2.92;;
74487;SDS011;63019;51.080;13.642;2023-11-19T02:51:27;5.22;;;2.53;;
74487;SDS011;63019;51.080;13.642;2023-11-19T02:52:29;4.40;;;2.60;;
74487;SDS011;63019;51.080;13.642;2023-11-19T02:53:31;9.87;;;2.60;;
74487;SDS011;63019;51.080;13.642;2023-11-19T02:54:33;4.93;;;2.58;;
74487;SDS011;63019;51.080;13.642;2023-11-19T02:55:36;5.20;;;2.33;;
74487;SDS011;63019;51.080;13.642;2023-11-19T02:56:42;4.57;;;2.35;;
74487;SDS011;63019;51.080;13.642;2023-11-19T02:57:44;4.13;;;2.03;;
74487;SDS011;63019;51.080;13.642;2023-11-19T02:58:50;7.13;;;2.00;;
74487;SDS011;63019;51.080;13.642;2023-11-19T02:59:52;4.25;;;2.03;;
74487;SDS011;63019;51.080;13.642;2023-11-19T03:00:55;3.33;;;1.90;;
74487;SDS011;63019;51.080;13.642;2023-11-19T03:02:02;2.30;;;1.70;;
74487;SDS011;63019;51.080;13.642;2023-11-19T03:03:05;6.53;;;2.00;;
74487;SDS011;63019;51.080;13.642;2023-11-19T03:04:19;2.43;;;1.67;;
74487;SDS011;63019;51.080;13.642;2023-11-19T03:05:21;2.63;;;1.80;;
74487;SDS011;63019;51.080;13.642;2023-11-19T03:06:23;3.63;;;1.80;;
74487;SDS011;63019;51.080;13.642;2023-11-19T03:07:26;1.92;;;1.40;;
74487;SDS011;63019;51.080;13.642;2023-11-19T03:08:28;2.65;;;1.70;;
74487;SDS011;63019;51.080;13.642;2023-11-19T03:09:30;2.50;;;1.63;;
74487;SDS011;63019;51.080;13.642;2023-11-19T03:10:32;2.45;;;1.45;;
74487;SDS011;63019;51.080;13.642;2023-11-19T03:11:36;2.55;;;1.50;;
74487;SDS011;63019;51.080;13.642;2023-11-19T03:12:38;2.60;;;1.50;;
74487;SDS011;63019;51.080;13.642;2023-11-19T03:13:40;2.17;;;1.30;;
74487;SDS011;63019;51.080;13.642;2023-11-19T03:14:42;2.47;;;1.27;;
74487;SDS011;63019;51.080;13.642;2023-11-19T03:15:46;3.05;;;1.50;;
74487;SDS011;63019;51.080;13.642;2023-11-19T03:16:48;2.20;;;1.30;;
74487;SDS011;63019;51.080;13.642;2023-11-19T03:17:50;2.70;;;1.42;;
74487;SDS011;63019;51.080;13.642;2023-11-19T03:18:52;2.13;;;1.33;;
74487;SDS011;63019;51.080;13.642;2023-11-19T03:19:54;2.15;;;1.45;;
74487;SDS011;63019;51.080;13.642;2023-11-19T03:20:56;3.58;;;1.48;;
74487;SDS011;63019;51.080;13.642;2023-11-19T03:22:01;2.90;;;1.48;;
74487;SDS011;63019;51.080;13.642;2023-11-19T03:23:03;2.30;;;1.35;;
74487;SDS011;63019;51.080;13.642;2023-11-19T03:24:05;2.85;;;1.20;;
74487;SDS011;63019;51.080;13.642;2023-11-19T03:25:09;4.00;;;1.33;;
74487;SDS011;63019;51.080;13.642;2023-11-19T03:26:11;2.40;;;1.40;;
74487;SDS011;63019;51.080;13.642;2023-11-19T03:27:14;4.47;;;1.30;;
74487;SDS011;63019;51.080;13.642;2023-11-19T03:28:17;2.20;;;1.20;;
74487;SDS011;63019;51.080;13.642;2023-11-19T03:29:19;1.45;;;1.00;;
74487;SDS011;63019;51.080;13.642;2023-11-19T03:30:21;2.45;;;1.42;;
74487;SDS011;63019;51.080;13.642;2023-11-19T03:31:34;2.80;;;1.40;;
74487;SDS011;63019;51.080;13.642;2023-11-19T03:32:36;2.72;;;1.30;;
74487;SDS011;63019;51.080;13.642;2023-11-19T03:33:40;1.85;;;1.20;;
74487;SDS011;63019;51.080;13.642;2023-11-19T03:34:42;2.60;;;1.25;;
74487;SDS011;63019;51.080;13.642;2023-11-19T03:35:44;1.23;;;1.10;;
74487;SDS011;63019;51.080;13.642;2023-11-19T03:36:47;1.92;;;0.95;;
74487;SDS011;63019;51.080;13.642;2023-11-19T03:37:50;2.13;;;1.20;;
74487;SDS011;63019;51.080;13.642;2023-11-19T03:38:52;2.58;;;1.20;;
74487;SDS011;63019;51.080;13.642;2023-11-19T03:39:54;2.58;;;1.20;;
74487;SDS011;63019;51.080;13.642;2023-11-19T03:41:00;1.95;;;1.25;;
74487;SDS011;63019;51.080;13.642;2023-11-19T03:42:02;3.15;;;1.38;;
74487;SDS011;63019;51.080;13.642;2023-11-19T03:43:04;2.53;;;1.00;;
74487;SDS011;63019;51.080;13.642;2023-11-19T03:44:07;2.45;;;1.30;;
74487;SDS011;63019;51.080;13.642;2023-11-19T03:45:08;2.05;;;1.17;;
74487;SDS011;63019;51.080;13.642;2023-11-19T03:46:20;2.73;;;1.13;;
74487;SDS011;63019;51.080;13.642;2023-11-19T03:47:22;2.22;;;1.20;;
74487;SDS011;63019;51.080;13.642;2023-11-19T03:48:24;1.80;;;1.13;;
74487;SDS011;63019;51.080;13.642;2023-11-19T03:49:26;2.15;;;1.27;;
74487;SDS011;63019;51.080;13.642;2023-11-19T03:50:28;1.55;;;1.10;;
74487;SDS011;63019;51.080;13.642;2023-11-19T03:51:29;2.97;;;1.23;;
74487;SDS011;63019;51.080;13.642;2023-11-19T03:52:31;6.35;;;1.27;;
74487;SDS011;63019;51.080;13.642;2023-11-19T03:53:44;1.85;;;1.30;;
74487;SDS011;63019;51.080;13.642;2023-11-19T03:54:47;1.73;;;1.10;;
74487;SDS011;63019;51.080;13.642;2023-11-19T03:55:49;2.33;;;1.20;;
74487;SDS011;63019;51.080;13.642;2023-11-19T03:56:51;1.83;;;1.10;;
74487;SDS011;63019;51.080;13.642;2023-11-19T03:57:53;1.88;;;1.17;;
74487;SDS011;63019;51.080;13.642;2023-11-19T03:58:54;2.15;;;1.27;;
74487;SDS011;63019;51.080;13.642;2023-11-19T03:59:56;2.83;;;1.20;;
74487;SDS011;63019;51.080;13.642;2023-11-19T04:00:59;1.70;;;1.25;;
74487;SDS011;63019;51.080;13.642;2023-11-19T04:02:02;2.85;;;1.20;;
74487;SDS011;63019;51.080;13.642;2023-11-19T04:03:04;4.35;;;2.83;;
74487;SDS011;63019;51.080;13.642;2023-11-19T04:04:06;2.22;;;1.20;;
74487;SDS011;63019;51.080;13.642;2023-11-19T04:05:08;1.27;;;1.00;;
74487;SDS011;63019;51.080;13.642;2023-11-19T04:06:11;2.78;;;1.20;;
74487;SDS011;63019;51.080;13.642;2023-11-19T04:07:13;2.27;;;1.30;;
74487;SDS011;63019;51.080;13.642;2023-11-19T04:08:14;1.67;;;1.02;;
74487;SDS011;63019;51.080;13.642;2023-11-19T04:09:16;1.08;;;0.82;;
74487;SDS011;63019;51.080;13.642;2023-11-19T04:10:18;3.55;;;1.23;;
74487;SDS011;63019;51.080;13.642;2023-11-19T04:11:20;1.60;;;1.00;;
74487;SDS011;63019;51.080;13.642;2023-11-19T04:12:22;1.63;;;1.08;;
74487;SDS011;63019;51.080;13.642;2023-11-19T04:13:24;3.53;;;0.98;;
74487;SDS011;63019;51.080;13.642;2023-11-19T04:14:26;1.60;;;0.93;;
74487;SDS011;63019;51.080;13.642;2023-11-19T04:15:28;1.17;;;0.90;;
74487;SDS011;63019;51.080;13.642;2023-11-19T04:16:30;1.73;;;0.80;;
74487;SDS011;63019;51.080;13.642;2023-11-19T04:17:32;1.33;;;0.80;;
74487;SDS011;63019;51.080;13.642;2023-11-19T04:18:34;1.88;;;1.00;;
74487;SDS011;63019;51.080;13.642;2023-11-19T04:19:36;1.77;;;1.10;;
74487;SDS011;63019;51.080;13.642;2023-11-19T04:20:38;1.45;;;0.93;;
74487;SDS011;63019;51.080;13.642;2023-11-19T04:21:40;3.30;;;1.10;;
74487;SDS011;63019;51.080;13.642;2023-11-19T04:22:43;2.00;;;1.10;;
74487;SDS011;63019;51.080;13.642;2023-11-19T04:23:44;2.10;;;1.20;;
74487;SDS011;63019;51.080;13.642;2023-11-19T04:24:46;1.77;;;1.20;;
74487;SDS011;63019;51.080;13.642;2023-11-19T04:25:48;3.05;;;0.93;;
74487;SDS011;63019;51.080;13.642;2023-11-19T04:26:50;2.15;;;1.20;;
74487;SDS011;63019;51.080;13.642;2023-11-19T04:27:52;2.20;;;1.00;;
74487;SDS011;63019;51.080;13.642;2023-11-19T04:28:54;1.42;;;0.98;;
74487;SDS011;63019;51.080;13.642;2023-11-19T04:29:55;1.70;;;1.05;;
74487;SDS011;63019;51.080;13.642;2023-11-19T04:30:57;2.08;;;1.20;;
74487;SDS011;63019;51.080;13.642;2023-11-19T04:31:59;1.88;;;1.27;;
74487;SDS011;63019;51.080;13.642;2023-11-19T04:33:02;2.38;;;1.27;;
74487;SDS011;63019;51.080;13.642;2023-11-19T04:34:04;2.50;;;1.20;;
74487;SDS011;63019;51.080;13.642;2023-11-19T04:35:07;2.15;;;1.15;;
74487;SDS011;63019;51.080;13.642;2023-11-19T04:36:10;3.25;;;1.30;;
74487;SDS011;63019;51.080;13.642;2023-11-19T04:37:12;3.13;;;1.10;;
74487;SDS011;63019;51.080;13.642;2023-11-19T04:38:14;3.40;;;1.43;;
74487;SDS011;63019;51.080;13.642;2023-11-19T04:39:16;3.03;;;1.10;;
74487;SDS011;63019;51.080;13.642;2023-11-19T04:40:20;4.95;;;1.50;;
74487;SDS011;63019;51.080;13.642;2023-11-19T04:41:24;3.35;;;1.25;;
74487;SDS011;63019;51.080;13.642;2023-11-19T04:42:26;1.70;;;1.40;;
74487;SDS011;63019;51.080;13.642;2023-11-19T04:43:28;2.55;;;1.33;;
74487;SDS011;63019;51.080;13.642;2023-11-19T04:44:29;4.78;;;1.23;;
74487;SDS011;63019;51.080;13.642;2023-11-19T04:45:31;4.25;;;1.60;;
74487;SDS011;63019;51.080;13.642;2023-11-19T04:46:33;2.53;;;1.20;;
74487;SDS011;63019;51.080;13.642;2023-11-19T04:47:36;2.03;;;1.33;;
74487;SDS011;63019;51.080;13.642;2023-11-19T04:48:38;2.87;;;1.40;;
74487;SDS011;63019;51.080;13.642;2023-11-19T04:49:43;2.97;;;1.50;;
74487;SDS011;63019;51.080;13.642;2023-11-19T04:50:44;3.50;;;1.70;;
74487;SDS011;63019;51.080;13.642;2023-11-19T04:51:46;3.08;;;1.40;;
74487;SDS011;63019;51.080;13.642;2023-11-19T04:52:49;2.10;;;1.25;;
74487;SDS011;63019;51.080;13.642;2023-11-19T04:53:51;5.22;;;1.42;;
74487;SDS011;63019;51.080;13.642;2023-11-19T04:54:52;3.65;;;1.50;;
74487;SDS011;63019;51.080;13.642;2023-11-19T04:55:54;4.68;;;1.70;;
74487;SDS011;63019;51.080;13.642;2023-11-19T04:56:56;2.28;;;1.48;;
74487;SDS011;63019;51.080;13.642;2023-11-19T04:57:58;4.47;;;1.48;;
74487;SDS011;63019;51.080;13.642;2023-11-19T04:59:00;3.67;;;1.50;;
74487;SDS011;63019;51.080;13.642;2023-11-19T05:00:03;3.40;;;1.58;;
74487;SDS011;63019;51.080;13.642;2023-11-19T05:01:17;2.47;;;1.60;;
74487;SDS011;63019;51.080;13.642;2023-11-19T05:02:19;7.38;;;1.60;;
74487;SDS011;63019;51.080;13.642;2023-11-19T05:03:21;3.45;;;2.10;;
74487;SDS011;63019;51.080;13.642;2023-11-19T05:04:24;5.18;;;1.92;;
74487;SDS011;63019;51.080;13.642;2023-11-19T05:05:26;2.97;;;1.70;;
74487;SDS011;63019;51.080;13.642;2023-11-19T05:06:28;3.83;;;1.70;;
74487;SDS011;63019;51.080;13.642;2023-11-19T05:07:31;3.22;;;1.85;;
74487;SDS011;63019;51.080;13.642;2023-11-19T05:08:33;2.88;;;1.63;;
74487;SDS011;63019;51.080;13.642;2023-11-19T05:09:35;2.67;;;1.70;;
74487;SDS011;63019;51.080;13.642;2023-11-19T05:10:36;2.72;;;1.90;;
74487;SDS011;63019;51.080;13.642;2023-11-19T05:11:38;5.38;;;1.98;;
74487;SDS011;63019;51.080;13.642;2023-11-19T05:12:52;5.18;;;1.90;;
74487;SDS011;63019;51.080;13.642;2023-11-19T05:13:54;3.58;;;1.80;;
74487;SDS011;63019;51.080;13.642;2023-11-19T05:14:56;3.42;;;1.88;;
74487;SDS011;63019;51.080;13.642;2023-11-19T05:15:58;4.00;;;1.98;;
74487;SDS011;63019;51.080;13.642;2023-11-19T05:17:00;3.28;;;1.80;;
74487;SDS011;63019;51.080;13.642;2023-11-19T05:18:02;5.35;;;1.90;;
74487;SDS011;63019;51.080;13.642;2023-11-19T05:19:06;2.30;;;1.63;;
74487;SDS011;63019;51.080;13.642;2023-11-19T05:20:08;4.63;;;1.57;;
74487;SDS011;63019;51.080;13.642;2023-11-19T05:21:15;3.00;;;1.80;;
74487;SDS011;63019;51.080;13.642;2023-11-19T05:22:18;3.92;;;1.90;;
74487;SDS011;63019;51.080;13.642;2023-11-19T05:23:22;2.53;;;1.73;;
74487;SDS011;63019;51.080;13.642;2023-11-19T05:24:23;4.93;;;2.00;;
74487;SDS011;63019;51.080;13.642;2023-11-19T05:25:26;3.85;;;2.13;;
74487;SDS011;63019;51.080;13.642;2023-11-19T05:26:28;3.22;;;1.75;;
74487;SDS011;63019;51.080;13.642;2023-11-19T05:27:30;3.42;;;1.80;;
74487;SDS011;63019;51.080;13.642;2023-11-19T05:28:32;3.33;;;2.00;;
74487;SDS011;63019;51.080;13.642;2023-11-19T05:29:33;3.67;;;1.92;;
74487;SDS011;63019;51.080;13.642;2023-11-19T05:30:35;3.93;;;2.00;;
74487;SDS011;63019;51.080;13.642;2023-11-19T05:31:37;3.42;;;1.80;;
74487;SDS011;63019;51.080;13.642;2023-11-19T05:32:40;4.43;;;1.92;;
74487;SDS011;63019;51.080;13.642;2023-11-19T05:33:41;2.95;;;2.00;;
74487;SDS011;63019;51.080;13.642;2023-11-19T05:34:44;3.17;;;1.90;;
74487;SDS011;63019;51.080;13.642;2023-11-19T05:35:48;3.05;;;1.98;;
74487;SDS011;63019;51.080;13.642;2023-11-19T05:36:50;3.30;;;1.92;;
74487;SDS011;63019;51.080;13.642;2023-11-19T05:37:52;4.13;;;1.77;;
74487;SDS011;63019;51.080;13.642;2023-11-19T05:38:54;7.05;;;2.10;;
74487;SDS011;63019;51.080;13.642;2023-11-19T05:39:56;3.35;;;1.90;;
74487;SDS011;63019;51.080;13.642;2023-11-19T05:40:58;3.73;;;2.07;;
74487;SDS011;63019;51.080;13.642;2023-11-19T05:41:59;4.18;;;2.10;;
74487;SDS011;63019;51.080;13.642;2023-11-19T05:43:01;5.13;;;2.25;;
74487;SDS011;63019;51.080;13.642;2023-11-19T05:44:03;3.35;;;2.20;;
74487;SDS011;63019;51.080;13.642;2023-11-19T05:45:05;4.05;;;1.90;;
74487;SDS011;63019;51.080;13.642;2023-11-19T05:46:08;3.38;;;2.20;;
74487;SDS011;63019;51.080;13.642;2023-11-19T05:47:13;3.05;;;1.98;;
74487;SDS011;63019;51.080;13.642;2023-11-19T05:48:15;3.03;;;2.10;;
74487;SDS011;63019;51.080;13.642;2023-11-19T05:49:18;3.22;;;2.08;;
74487;SDS011;63019;51.080;13.642;2023-11-19T05:50:19;4.55;;;2.40;;
74487;SDS011;63019;51.080;13.642;2023-11-19T05:51:21;4.53;;;2.20;;
74487;SDS011;63019;51.080;13.642;2023-11-19T05:52:25;4.18;;;2.03;;
74487;SDS011;63019;51.080;13.642;2023-11-19T05:53:27;4.90;;;2.50;;
74487;SDS011;63019;51.080;13.642;2023-11-19T05:54:28;3.33;;;2.35;;
74487;SDS011;63019;51.080;13.642;2023-11-19T05:55:38;4.25;;;2.30;;
74487;SDS011;63019;51.080;13.642;2023-11-19T05:57:00;4.15;;;1.95;;
74487;SDS011;63019;51.080;13.642;2023-11-19T05:58:03;5.43;;;1.80;;
74487;SDS011;63019;51.080;13.642;2023-11-19T05:59:05;3.40;;;2.05;;
74487;SDS011;63019;51.080;13.642;2023-11-19T06:00:16;4.90;;;2.30;;
74487;SDS011;63019;51.080;13.642;2023-11-19T06:01:19;2.80;;;2.05;;
74487;SDS011;63019;51.080;13.642;2023-11-19T06:02:21;6.47;;;2.33;;
74487;SDS011;63019;51.080;13.642;2023-11-19T06:03:23;3.67;;;2.40;;
74487;SDS011;63019;51.080;13.642;2023-11-19T06:04:25;3.28;;;2.30;;
74487;SDS011;63019;51.080;13.642;2023-11-19T06:05:27;3.95;;;2.13;;
74487;SDS011;63019;51.080;13.642;2023-11-19T06:06:28;3.92;;;2.22;;
74487;SDS011;63019;51.080;13.642;2023-11-19T06:07:31;4.00;;;2.53;;
74487;SDS011;63019;51.080;13.642;2023-11-19T06:08:33;5.00;;;2.17;;
74487;SDS011;63019;51.080;13.642;2023-11-19T06:09:35;3.78;;;1.98;;
74487;SDS011;63019;51.080;13.642;2023-11-19T06:10:38;3.72;;;2.30;;
74487;SDS011;63019;51.080;13.642;2023-11-19T06:11:40;2.95;;;2.00;;
74487;SDS011;63019;51.080;13.642;2023-11-19T06:12:42;2.93;;;1.90;;
74487;SDS011;63019;51.080;13.642;2023-11-19T06:13:44;3.65;;;2.40;;